Nearby METAR Reports

 

KBFI - Seattle/Boeing, Washington, USA
Distance from station: S 4mi, 7km
Updated: 2019-08-17 19:53
Overcast
Overcast
 Wind from SW
Wind: SW 3 mph , 6 km/h
Temperature: 72°F , 22°C
Dew Point: 54°F , 12°C
Humidity: 53%
Barometer: 29.90 inHg , 1012.5 hPa
Clouds: Overcast
Visibility: 10 miles , 16 km
Cloud details: Overcast 6500 ft
2019/08/18 02:53 KBFI 180253Z 22003KT 10SM OVC065 22/12 A2990 RMK AO2 SLP126 T02170117 56015
KRNT - Renton, Washington, USA
Distance from station: SSE 9mi, 14km
Updated: 2019-08-17 19:53
Overcast
Overcast
 Wind from WSW
Wind: WSW 3 mph , 6 km/h
Temperature: 72°F , 22°C
Dew Point: 55°F , 13°C
Humidity: 57%
Barometer: 29.90 inHg , 1012.5 hPa
Clouds: Overcast
Visibility: 5 miles , 8 km
Cloud details: Overcast 7000 ft
2019/08/18 02:53 KRNT 180253Z 24003KT 5SM OVC070 22/13 A2990 RMK AO2 SLP131 T02220128 56013
 
KSEA - Seattle/Metro, Washington, USA
Distance from station: S 11mi, 18km
Updated: 2019-08-17 19:53
Mostly cloudy
Mostly cloudy
 Wind from SW
Wind: SW 6 mph , 9 km/h
Temperature: 70°F , 21°C
Dew Point: 54°F , 12°C
Humidity: 57%
Barometer: 29.92 inHg , 1013.2 hPa
Clouds: Mostly cloudy
Visibility: 10 miles , 16 km
Cloud details: Few Clouds 3500 ft
Mostly cloudy 6000 ft
2019/08/18 02:53 KSEA 180253Z 22005KT 10SM FEW035 BKN060 21/12 A2992 RMK AO2 SLP137 T02110122 56013
KPAE - Everett, Washington, USA
Distance from station: N 21mi, 34km
Updated: 2019-08-17 19:53
Overcast
Overcast
 Wind from SSW
Wind: SSW 6 mph , 9 km/h
Temperature: 70°F , 21°C
Dew Point: 55°F , 13°C
Humidity: 60%
Barometer: 29.93 inHg , 1013.5 hPa
Clouds: Overcast
Visibility: 10 miles , 16 km
Cloud details: Overcast 6000 ft
2019/08/18 02:53 KPAE 180253Z 21005KT 10SM OVC060 21/13 A2993 RMK AO2 SLP131 T02060128 56013
 
KPWT - Bremerton Ntnl, Washington, USA
Distance from station: WSW 22mi, 35km
Updated: 2019-08-17 19:56
Overcast
Overcast
 Wind from SW
Wind: SW 10 mph , 17 km/h
Temperature: 66°F , 19°C
Dew Point: 55°F , 13°C
Humidity: 68%
Barometer: 29.92 inHg , 1013.2 hPa
Clouds: Overcast
Visibility: 10 miles , 16 km
Cloud details: Overcast 4800 ft
2019/08/18 02:56 KPWT 180256Z AUTO 23009KT 10SM OVC048 19/13 A2992 RMK AO2 SLP147 6//// T01940128 56013
KTIW - Tacoma, Washington, USA
Distance from station: SSW 27mi, 43km
Updated: 2019-08-17 19:53
Overcast
Overcast
 Wind from varies
Wind: varies 3 mph , 6 km/h
Temperature: 66°F , 19°C
Dew Point: 55°F , 13°C
Humidity: 68%
Barometer: 29.92 inHg , 1013.2 hPa
Clouds: Overcast
Visibility: 10 miles , 16 km
Cloud details: Overcast 6000 ft
2019/08/18 02:53 KTIW 180253Z VRB03KT 10SM OVC060 19/13 A2992 RMK AO2 SLP129 T01890128 56013
 
KTCM - Tacoma/Mc Chord, Washington, USA
Distance from station: S 35mi, 56km
Updated: 2019-08-17 19:58
Overcast
Overcast
 Wind from WNW
Wind: WNW 10 mph , 17 km/h
Temperature: 68°F , 20°C
Dew Point: 61°F , 16°C
Humidity: 78%
Barometer: 29.92 inHg , 1013.2 hPa
Clouds: Overcast
Visibility: 10 miles , 16 km
Cloud details: Overcast 6000 ft
2019/08/18 02:58 KTCM 180258Z AUTO 30009KT 10SM OVC060 20/16 A2992 RMK AO2 SLP135 T02000156 56009 $
KPLU - Puyallup/Thun, Washington, USA
Distance from station: S 35mi, 57km
Updated: 2019-08-17 19:55
Overcast
Overcast
 Wind from varies
Wind: varies 5 mph , 7 km/h
Temperature: 70°F , 21°C
Dew Point: 57°F , 14°C
Humidity: 64%
Barometer: 29.93 inHg , 1013.5 hPa
Clouds: Overcast
Visibility: 10 miles , 16 km
Cloud details: Mostly cloudy 4400 ft
Overcast 5000 ft
2019/08/18 02:55 KPLU 180255Z AUTO VRB04KT 10SM BKN044 OVC050 21/14 A2993 RMK AO2
 
K0S9 - Port Townsend, Washington, USA
Distance from station: NW 38mi, 62km
Updated: 2019-08-17 19:55
Overcast
Overcast
 Wind from NW
Wind: NW 5 mph , 7 km/h
Temperature: 63°F , 17°C
Dew Point: 55°F , 13°C
Humidity: 77%
Barometer: 29.91 inHg , 1012.9 hPa
Clouds: Overcast
Visibility: 10 miles , 16 km
Cloud details: Overcast 6000 ft
2019/08/18 02:55 K0S9 180255Z AUTO 32004KT 10SM OVC060 17/13 A2991 RMK AO2
KAWO - Arlington Muni, Washington, USA
Distance from station: N 39mi, 63km
Updated: 2019-08-17 19:56
Clear
Clear
 Wind from SSW
Wind: SSW 5 mph , 7 km/h
Temperature: 70°F , 21°C
Dew Point: 55°F , 13°C
Humidity: 60%
Barometer: 29.91 inHg , 1012.9 hPa
Clouds: Clear
Visibility: 10 miles , 16 km
2019/08/18 02:56 KAWO 180256Z AUTO 21004KT 10SM CLR 21/13 A2991 RMK AO2 SLP131 6//// T02110133 56012 PNO $
 
KGRF - Fort Lewis/Gray, Washington, USA
Distance from station: SSW 39mi, 64km
Updated: 2019-08-17 19:58
Overcast
Overcast
 Wind from W
Wind: W 7 mph , 11 km/h
Temperature: 68°F , 20°C
Dew Point: 61°F , 16°C
Humidity: 78%
Barometer: 29.92 inHg , 1013.2 hPa
Clouds: Overcast
Visibility: 10 miles , 16 km
Cloud details: Overcast 6000 ft
2019/08/18 02:58 KGRF 180258Z AUTO 27006KT 10SM OVC060 20/16 A2992 RMK AO2 SLP135 T02010161 56011 $
KSHN - Shelton, Washington, USA
Distance from station: SW 46mi, 75km
Updated: 2019-08-17 19:53
Clear
Clear
 Wind from WSW
Wind: WSW 8 mph , 13 km/h
Temperature: 66°F , 19°C
Dew Point: 55°F , 13°C
Humidity: 68%
Barometer: 29.91 inHg , 1012.9 hPa
Clouds: Clear
Visibility: 10 miles , 16 km
2019/08/18 02:53 KSHN 180253Z AUTO 25007KT 10SM CLR 19/13 A2991 RMK AO2 SLP128 T01890128 56011